^^
Saratoga-Weather Station Historical Data
Daily Summary for May 14, 2022 Units:  Both    English   Metric
Daily Weekly Monthly Yearly Custom
  High: Low: Average:
Temperature: 76.3 °F /  24.6 °C 45.9 °F /  7.7 °C 61.9 °F /  16.6 °C
Dew Point: 53.2 °F /  11.8 °C 43.2 °F /  6.2 °C 48 °F /  8.9 °C
Humidity: 91% 38% 63%
Wind Speed: 6mph /  9.7km/h - 1.1mph /  1.7km/h
Wind Gust: 9mph /  14.5km/h - -
Wind- - South
Pressure: 30.2 in /  1021.3 hPa 30.1 in /  1018.0 hPa -
Precipitation: 0 in /  0.0 mm    
Historical Graphs
 
 
Tabular Data for May 14, 2022
Time Temperature Dew Point Pressure Wind Wind Speed Wind Gust Humidity Rainfall Rate (Hourly) solar
00:02 54 °F /  12.2 °C 45.5 °F /  7.5 °C 30.1in /  1020.7hPa Calm   1mph /  1.6km/h 73% 0in /  0.0mm 0 W/m2
00:12 53.6 °F /  12 °C 45.5 °F /  7.5 °C 30.1in /  1020.7hPa Calm   2mph /  3.2km/h 74% 0in /  0.0mm 0 W/m2
00:17 53.4 °F /  11.9 °C 45.7 °F /  7.6 °C 30.1in /  1020.7hPa Calm     75% 0in /  0.0mm 0 W/m2
00:22 53.4 °F /  11.9 °C 45.7 °F /  7.6 °C 30.1in /  1020.7hPa West 2mph /  3.2km/h 2mph /  3.2km/h 75% 0in /  0.0mm 0 W/m2
00:27 53.4 °F /  11.9 °C 46 °F /  7.8 °C 30.1in /  1020.7hPa West 0.9mph /  1.4km/h 2mph /  3.2km/h 76% 0in /  0.0mm 0 W/m2
00:32 53.4 °F /  11.9 °C 46 °F /  7.8 °C 30.1in /  1020.7hPa Calm     76% 0in /  0.0mm 0 W/m2
00:37 53.4 °F /  11.9 °C 46 °F /  7.8 °C 30.1in /  1020.7hPa Calm     76% 0in /  0.0mm 0 W/m2
00:42 53.2 °F /  11.8 °C 45.9 °F /  7.7 °C 30.1in /  1020.7hPa Calm     76% 0in /  0.0mm 0 W/m2
00:47 53.1 °F /  11.7 °C 45.7 °F /  7.6 °C 30.1in /  1020.7hPa Calm     76% 0in /  0.0mm 0 W/m2
00:52 52.9 °F /  11.6 °C 45.5 °F /  7.5 °C 30.1in /  1020.7hPa Calm     76% 0in /  0.0mm 0 W/m2
00:57 52.7 °F /  11.5 °C 45.3 °F /  7.4 °C 30.1in /  1020.7hPa Calm     76% 0in /  0.0mm 0 W/m2
01:02 52.7 °F /  11.5 °C 45.7 °F /  7.6 °C 30.1in /  1020.7hPa Calm   1mph /  1.6km/h 77% 0in /  0.0mm 0 W/m2
01:07 52.7 °F /  11.5 °C 45.7 °F /  7.6 °C 30.1in /  1020.7hPa Calm   1mph /  1.6km/h 77% 0in /  0.0mm 0 W/m2
01:12 52.7 °F /  11.5 °C 45.7 °F /  7.6 °C 30.1in /  1020.7hPa West 0.9mph /  1.4km/h 2mph /  3.2km/h 77% 0in /  0.0mm 0 W/m2
01:17 52.5 °F /  11.4 °C 45.5 °F /  7.5 °C 30.1in /  1020.7hPa Calm   2mph /  3.2km/h 77% 0in /  0.0mm 0 W/m2
01:22 52.5 °F /  11.4 °C 45.9 °F /  7.7 °C 30.1in /  1020.7hPa Calm     78% 0in /  0.0mm 0 W/m2
01:27 52.3 °F /  11.3 °C 45.7 °F /  7.6 °C 30.1in /  1020.7hPa Calm   2mph /  3.2km/h 78% 0in /  0.0mm 0 W/m2
01:32 52.3 °F /  11.3 °C 45.7 °F /  7.6 °C 30.1in /  1020.7hPa Calm     78% 0in /  0.0mm 0 W/m2
01:37 52.2 °F /  11.2 °C 45.9 °F /  7.7 °C 30.1in /  1020.7hPa Calm     79% 0in /  0.0mm 0 W/m2
01:42 52 °F /  11.1 °C 45.7 °F /  7.6 °C 30.1in /  1020.7hPa Calm     79% 0in /  0.0mm 0 W/m2
01:47 52 °F /  11.1 °C 45.7 °F /  7.6 °C 30.1in /  1020.7hPa Calm     79% 0in /  0.0mm 0 W/m2
01:52 51.6 °F /  10.9 °C 45.3 °F /  7.4 °C 30.1in /  1020.7hPa Calm     79% 0in /  0.0mm 0 W/m2
01:57 51.4 °F /  10.8 °C 45.1 °F /  7.3 °C 30.1in /  1020.7hPa Calm     79% 0in /  0.0mm 0 W/m2
02:02 51.3 °F /  10.7 °C 45.3 °F /  7.4 °C 30.1in /  1020.7hPa Calm     80% 0in /  0.0mm 0 W/m2
02:07 51.1 °F /  10.6 °C 45.1 °F /  7.3 °C 30.1in /  1020.7hPa Calm   1mph /  1.6km/h 80% 0in /  0.0mm 0 W/m2
02:12 50.7 °F /  10.4 °C 45.1 °F /  7.3 °C 30.1in /  1020.7hPa Calm     81% 0in /  0.0mm 0 W/m2
02:17 50.5 °F /  10.3 °C 45 °F /  7.2 °C 30.1in /  1020.7hPa Calm   1mph /  1.6km/h 81% 0in /  0.0mm 0 W/m2
02:22 50.4 °F /  10.2 °C 44.8 °F /  7.1 °C 30.1in /  1020.7hPa Calm     81% 0in /  0.0mm 0 W/m2
02:27 50.2 °F /  10.1 °C 44.6 °F /  7 °C 30.1in /  1020.7hPa Calm     81% 0in /  0.0mm 0 W/m2
02:32 50 °F /  10 °C 44.8 °F /  7.1 °C 30.1in /  1020.7hPa Calm     82% 0in /  0.0mm 0 W/m2
02:37 49.6 °F /  9.8 °C 44.8 °F /  7.1 °C 30.1in /  1020.7hPa Calm     83% 0in /  0.0mm 0 W/m2
02:42 49.6 °F /  9.8 °C 44.8 °F /  7.1 °C 30.1in /  1020.7hPa Calm     83% 0in /  0.0mm 0 W/m2
02:47 49.5 °F /  9.7 °C 44.6 °F /  7 °C 30.1in /  1020.7hPa Calm     83% 0in /  0.0mm 0 W/m2
02:52 49.3 °F /  9.6 °C 44.4 °F /  6.9 °C 30.1in /  1020.7hPa Calm     83% 0in /  0.0mm 0 W/m2
02:57 48.9 °F /  9.4 °C 44.1 °F /  6.7 °C 30.1in /  1020.7hPa Calm     83% 0in /  0.0mm 0 W/m2
03:02 48.9 °F /  9.4 °C 44.2 °F /  6.8 °C 30.1in /  1020.7hPa Calm     84% 0in /  0.0mm 0 W/m2
03:07 48.7 °F /  9.3 °C 44.1 °F /  6.7 °C 30.1in /  1020.7hPa Calm     84% 0in /  0.0mm 0 W/m2
03:12 48.6 °F /  9.2 °C 43.9 °F /  6.6 °C 30.1in /  1020.7hPa Calm     84% 0in /  0.0mm 0 W/m2
03:22 48.4 °F /  9.1 °C 44.1 °F /  6.7 °C 30.1in /  1020.7hPa Calm     85% 0in /  0.0mm 0 W/m2
03:27 48.4 °F /  9.1 °C 44.4 °F /  6.9 °C 30.1in /  1020.7hPa Calm     86% 0in /  0.0mm 0 W/m2
03:32 48.4 °F /  9.1 °C 44.4 °F /  6.9 °C 30.1in /  1020.7hPa Calm     86% 0in /  0.0mm 0 W/m2
03:37 48.6 °F /  9.2 °C 44.6 °F /  7 °C 30.1in /  1020.7hPa Calm     86% 0in /  0.0mm 0 W/m2
03:42 48.4 °F /  9.1 °C 44.1 °F /  6.7 °C 30.1in /  1020.7hPa Calm     85% 0in /  0.0mm 0 W/m2
03:47 48.4 °F /  9.1 °C 44.1 °F /  6.7 °C 30.1in /  1020.7hPa Calm     85% 0in /  0.0mm 0 W/m2
03:52 48.2 °F /  9 °C 43.9 °F /  6.6 °C 30.1in /  1020.7hPa Calm     85% 0in /  0.0mm 0 W/m2
03:57 48 °F /  8.9 °C 44.1 °F /  6.7 °C 30.1in /  1020.7hPa Calm     86% 0in /  0.0mm 0 W/m2
04:02 47.8 °F /  8.8 °C 43.9 °F /  6.6 °C 30.1in /  1020.7hPa Calm     86% 0in /  0.0mm 0 W/m2
04:07 47.7 °F /  8.7 °C 43.7 °F /  6.5 °C 30.1in /  1020.7hPa Calm     86% 0in /  0.0mm 0 W/m2
04:12 47.7 °F /  8.7 °C 44.1 °F /  6.7 °C 30.1in /  1020.7hPa Calm     87% 0in /  0.0mm 0 W/m2
04:17 47.5 °F /  8.6 °C 43.9 °F /  6.6 °C 30.1in /  1020.7hPa Calm     87% 0in /  0.0mm 0 W/m2
04:22 47.3 °F /  8.5 °C 43.7 °F /  6.5 °C 30.1in /  1020.7hPa Calm     87% 0in /  0.0mm 0 W/m2
04:27 47.3 °F /  8.5 °C 43.9 °F /  6.6 °C 30.1in /  1020.7hPa Calm     88% 0in /  0.0mm 0 W/m2
04:32 47.1 °F /  8.4 °C 43.7 °F /  6.5 °C 30.1in /  1020.7hPa Calm     88% 0in /  0.0mm 0 W/m2
04:37 47.1 °F /  8.4 °C 43.7 °F /  6.5 °C 30.1in /  1020.7hPa Calm     88% 0in /  0.0mm 0 W/m2
04:42 47.1 °F /  8.4 °C 43.7 °F /  6.5 °C 30.1in /  1020.7hPa Calm     88% 0in /  0.0mm 0 W/m2
04:47 47.1 °F /  8.4 °C 43.7 °F /  6.5 °C 30.1in /  1020.7hPa Calm     88% 0in /  0.0mm 0 W/m2
04:52 47.1 °F /  8.4 °C 43.7 °F /  6.5 °C 30.1in /  1020.7hPa Calm     88% 0in /  0.0mm 0 W/m2
04:57 46.9 °F /  8.3 °C 43.5 °F /  6.4 °C 30.1in /  1020.7hPa Calm     88% 0in /  0.0mm 0 W/m2
05:02 46.9 °F /  8.3 °C 43.5 °F /  6.4 °C 30.1in /  1020.7hPa Calm     88% 0in /  0.0mm 0 W/m2
05:07 46.8 °F /  8.2 °C 43.3 °F /  6.3 °C 30.1in /  1020.7hPa Calm     88% 0in /  0.0mm 0 W/m2
05:12 46.8 °F /  8.2 °C 43.7 °F /  6.5 °C 30.1in /  1020.7hPa Calm     89% 0in /  0.0mm 0 W/m2
05:17 46.8 °F /  8.2 °C 43.7 °F /  6.5 °C 30.1in /  1020.7hPa Calm     89% 0in /  0.0mm 0 W/m2
05:22 46.8 °F /  8.2 °C 43.7 °F /  6.5 °C 30.1in /  1020.7hPa Calm     89% 0in /  0.0mm 0 W/m2
05:27 46.6 °F /  8.1 °C 43.5 °F /  6.4 °C 30.1in /  1020.7hPa Calm     89% 0in /  0.0mm 0 W/m2
05:32 46.4 °F /  8 °C 43.3 °F /  6.3 °C 30.1in /  1020.7hPa Calm     89% 0in /  0.0mm 0 W/m2
05:37 46.4 °F /  8 °C 43.3 °F /  6.3 °C 30.1in /  1020.7hPa Calm     89% 0in /  0.0mm 0 W/m2
05:42 46.2 °F /  7.9 °C 43.2 °F /  6.2 °C 30.1in /  1020.7hPa Calm     89% 0in /  0.0mm 0 W/m2
05:47 46.2 °F /  7.9 °C 43.2 °F /  6.2 °C 30.1in /  1020.7hPa Calm     89% 0in /  0.0mm 0 W/m2
05:53 46 °F /  7.8 °C 43.3 °F /  6.3 °C 30.1in /  1020.7hPa Calm     90% 0in /  0.0mm 0 W/m2
05:58 46 °F /  7.8 °C 43.3 °F /  6.3 °C 30.1in /  1020.7hPa Calm     90% 0in /  0.0mm 0 W/m2
06:03 46 °F /  7.8 °C 43.3 °F /  6.3 °C 30.2in /  1021.0hPa Calm     90% 0in /  0.0mm 5 W/m2
06:08 46 °F /  7.8 °C 43.3 °F /  6.3 °C 30.2in /  1021.0hPa Calm     90% 0in /  0.0mm 9 W/m2
06:13 46 °F /  7.8 °C 43.3 °F /  6.3 °C 30.2in /  1021.0hPa Calm     90% 0in /  0.0mm 11 W/m2
06:18 46 °F /  7.8 °C 43.3 °F /  6.3 °C 30.2in /  1021.0hPa Calm     90% 0in /  0.0mm 12 W/m2
06:23 45.9 °F /  7.7 °C 43.2 °F /  6.2 °C 30.2in /  1021.0hPa Calm     90% 0in /  0.0mm 16 W/m2
06:28 46 °F /  7.8 °C 43.3 °F /  6.3 °C 30.2in /  1021.0hPa Calm     90% 0in /  0.0mm 18 W/m2
06:33 46 °F /  7.8 °C 43.3 °F /  6.3 °C 30.2in /  1021.0hPa Calm     90% 0in /  0.0mm 19 W/m2
06:38 46 °F /  7.8 °C 43.3 °F /  6.3 °C 30.2in /  1021.0hPa Calm     90% 0in /  0.0mm 21 W/m2
06:43 46 °F /  7.8 °C 43.5 °F /  6.4 °C 30.2in /  1021.0hPa Calm     91% 0in /  0.0mm 23 W/m2
06:48 46.2 °F /  7.9 °C 43.5 °F /  6.4 °C 30.2in /  1021.0hPa Calm     90% 0in /  0.0mm 25 W/m2
06:53 46.2 °F /  7.9 °C 43.5 °F /  6.4 °C 30.2in /  1021.0hPa Calm     90% 0in /  0.0mm 25 W/m2
06:58 46.6 °F /  8.1 °C 44.1 °F /  6.7 °C 30.2in /  1021.0hPa Calm     91% 0in /  0.0mm 25 W/m2
07:03 46.8 °F /  8.2 °C 44.2 °F /  6.8 °C 30.2in /  1021.0hPa Calm     91% 0in /  0.0mm 25 W/m2
07:08 46.9 °F /  8.3 °C 44.2 °F /  6.8 °C 30.2in /  1021.0hPa Calm     90% 0in /  0.0mm 26 W/m2
07:13 46.9 °F /  8.3 °C 44.2 °F /  6.8 °C 30.2in /  1021.0hPa Calm     90% 0in /  0.0mm 35 W/m2
07:18 47.3 °F /  8.5 °C 44.6 °F /  7 °C 30.2in /  1021.0hPa Calm     90% 0in /  0.0mm 81 W/m2
07:23 47.8 °F /  8.8 °C 45.3 °F /  7.4 °C 30.2in /  1021.0hPa Calm     91% 0in /  0.0mm 121 W/m2
07:28 49.1 °F /  9.5 °C 46.2 °F /  7.9 °C 30.2in /  1021.0hPa Calm   1mph /  1.6km/h 90% 0in /  0.0mm 137 W/m2
07:33 50.7 °F /  10.4 °C 47.3 °F /  8.5 °C 30.2in /  1021.0hPa Calm     88% 0in /  0.0mm 151 W/m2
07:38 52.2 °F /  11.2 °C 47.5 °F /  8.6 °C 30.2in /  1021.0hPa NW 0.9mph /  1.4km/h 1mph /  1.6km/h 84% 0in /  0.0mm 165 W/m2
07:43 53.2 °F /  11.8 °C 47.5 °F /  8.6 °C 30.2in /  1021.0hPa NW 0.9mph /  1.4km/h 1mph /  1.6km/h 81% 0in /  0.0mm 181 W/m2
07:48 54 °F /  12.2 °C 48 °F /  8.9 °C 30.2in /  1021.3hPa Calm   1mph /  1.6km/h 80% 0in /  0.0mm 195 W/m2
07:53 55 °F /  12.8 °C 48 °F /  8.9 °C 30.2in /  1021.3hPa Calm     77% 0in /  0.0mm 209 W/m2
07:58 55 °F /  12.8 °C 47.7 °F /  8.7 °C 30.2in /  1021.3hPa Calm   1mph /  1.6km/h 76% 0in /  0.0mm 216 W/m2
08:03 55.2 °F /  12.9 °C 47.8 °F /  8.8 °C 30.2in /  1021.0hPa Calm   1mph /  1.6km/h 76% 0in /  0.0mm 162 W/m2
08:08 55.8 °F /  13.2 °C 48.4 °F /  9.1 °C 30.2in /  1021.0hPa Calm   1mph /  1.6km/h 76% 0in /  0.0mm 81 W/m2
08:13 56.7 °F /  13.7 °C 48.7 °F /  9.3 °C 30.2in /  1021.0hPa Calm     75% 0in /  0.0mm 47 W/m2
08:18 57.6 °F /  14.2 °C 48.9 °F /  9.4 °C 30.2in /  1021.0hPa Calm     73% 0in /  0.0mm 47 W/m2
08:23 58.6 °F /  14.8 °C 49.3 °F /  9.6 °C 30.2in /  1021.3hPa Calm   1mph /  1.6km/h 71% 0in /  0.0mm 47 W/m2
08:28 59.5 °F /  15.3 °C 49.3 °F /  9.6 °C 30.2in /  1021.3hPa Calm   2mph /  3.2km/h 69% 0in /  0.0mm 47 W/m2
08:33 59.5 °F /  15.3 °C 48.9 °F /  9.4 °C 30.2in /  1021.3hPa ENE 0.9mph /  1.4km/h 3mph /  4.8km/h 68% 0in /  0.0mm 47 W/m2
08:38 59.2 °F /  15.1 °C 49.1 °F /  9.5 °C 30.2in /  1021.3hPa NE 2mph /  3.2km/h 2mph /  3.2km/h 69% 0in /  0.0mm 47 W/m2
08:43 59.4 °F /  15.2 °C 48.7 °F /  9.3 °C 30.2in /  1021.3hPa NE 2mph /  3.2km/h 3mph /  4.8km/h 68% 0in /  0.0mm 47 W/m2
08:48 59.4 °F /  15.2 °C 48.7 °F /  9.3 °C 30.2in /  1021.3hPa ESE 2mph /  3.2km/h 3mph /  4.8km/h 68% 0in /  0.0mm 47 W/m2
08:53 59.5 °F /  15.3 °C 48.6 °F /  9.2 °C 30.2in /  1021.3hPa Calm   1mph /  1.6km/h 67% 0in /  0.0mm 49 W/m2
08:58 59.7 °F /  15.4 °C 48.7 °F /  9.3 °C 30.2in /  1021.3hPa Calm   3mph /  4.8km/h 67% 0in /  0.0mm 47 W/m2
09:03 59.7 °F /  15.4 °C 48.7 °F /  9.3 °C 30.2in /  1021.3hPa East 2mph /  3.2km/h 2mph /  3.2km/h 67% 0in /  0.0mm 47 W/m2
09:08 59.9 °F /  15.5 °C 48.9 °F /  9.4 °C 30.2in /  1021.3hPa ENE 2mph /  3.2km/h 2mph /  3.2km/h 67% 0in /  0.0mm 47 W/m2
09:13 60.1 °F /  15.6 °C 49.1 °F /  9.5 °C 30.2in /  1021.3hPa NE 2mph /  3.2km/h 3mph /  4.8km/h 67% 0in /  0.0mm 47 W/m2
09:18 60.3 °F /  15.7 °C 49.3 °F /  9.6 °C 30.2in /  1021.3hPa East 0.9mph /  1.4km/h 3mph /  4.8km/h 67% 0in /  0.0mm 49 W/m2
09:23 60.6 °F /  15.9 °C 49.3 °F /  9.6 °C 30.2in /  1021.3hPa ESE 0.9mph /  1.4km/h 2mph /  3.2km/h 66% 0in /  0.0mm 49 W/m2
09:28 61 °F /  16.1 °C 48.7 °F /  9.3 °C 30.2in /  1021.3hPa Calm   3mph /  4.8km/h 64% 0in /  0.0mm 49 W/m2
09:33 61.2 °F /  16.2 °C 49.3 °F /  9.6 °C 30.2in /  1021.3hPa SE 0.9mph /  1.4km/h 3mph /  4.8km/h 65% 0in /  0.0mm 51 W/m2
09:38 61.3 °F /  16.3 °C 49.1 °F /  9.5 °C 30.2in /  1021.3hPa ESE 0.9mph /  1.4km/h 3mph /  4.8km/h 64% 0in /  0.0mm 51 W/m2
09:43 61.5 °F /  16.4 °C 49.6 °F /  9.8 °C 30.2in /  1021.3hPa WNW 2mph /  3.2km/h 3mph /  4.8km/h 65% 0in /  0.0mm 53 W/m2
09:48 61.5 °F /  16.4 °C 49.6 °F /  9.8 °C 30.2in /  1021.3hPa ENE 2mph /  3.2km/h 3mph /  4.8km/h 65% 0in /  0.0mm 53 W/m2
09:53 61.7 °F /  16.5 °C 50.2 °F /  10.1 °C 30.2in /  1021.3hPa ENE 2.9mph /  4.7km/h 4mph /  6.4km/h 66% 0in /  0.0mm 54 W/m2
09:58 62.1 °F /  16.7 °C 50.2 °F /  10.1 °C 30.2in /  1021.3hPa East 2mph /  3.2km/h 4mph /  6.4km/h 65% 0in /  0.0mm 111 W/m2
10:03 62.4 °F /  16.9 °C 50 °F /  10 °C 30.2in /  1021.3hPa ENE 2.9mph /  4.7km/h 3mph /  4.8km/h 64% 0in /  0.0mm 494 W/m2
10:08 62.6 °F /  17 °C 49.5 °F /  9.7 °C 30.2in /  1021.3hPa ESE 2mph /  3.2km/h 4mph /  6.4km/h 62% 0in /  0.0mm 577 W/m2
10:13 63 °F /  17.2 °C 50.5 °F /  10.3 °C 30.2in /  1021.3hPa East 4.9mph /  7.9km/h 5mph /  8km/h 64% 0in /  0.0mm 591 W/m2
10:18 63.1 °F /  17.3 °C 49.8 °F /  9.9 °C 30.2in /  1021.3hPa East 0.9mph /  1.4km/h 3mph /  4.8km/h 62% 0in /  0.0mm 603 W/m2
10:23 63.7 °F /  17.6 °C 50 °F /  10 °C 30.2in /  1021.3hPa Calm   1mph /  1.6km/h 61% 0in /  0.0mm 619 W/m2
10:28 63.9 °F /  17.7 °C 50.2 °F /  10.1 °C 30.2in /  1021.3hPa East 2.9mph /  4.7km/h 4mph /  6.4km/h 61% 0in /  0.0mm 635 W/m2
10:33 64 °F /  17.8 °C 50.4 °F /  10.2 °C 30.2in /  1021.3hPa East 2mph /  3.2km/h 2mph /  3.2km/h 61% 0in /  0.0mm 650 W/m2
10:38 64.6 °F /  18.1 °C 50.4 °F /  10.2 °C 30.2in /  1021.3hPa East 0.9mph /  1.4km/h 3mph /  4.8km/h 60% 0in /  0.0mm 657 W/m2
10:43 64.8 °F /  18.2 °C 49.6 °F /  9.8 °C 30.2in /  1021.3hPa East 0.9mph /  1.4km/h 3mph /  4.8km/h 58% 0in /  0.0mm 643 W/m2
10:48 64.9 °F /  18.3 °C 50.2 °F /  10.1 °C 30.2in /  1021.3hPa East 2mph /  3.2km/h 4mph /  6.4km/h 59% 0in /  0.0mm 626 W/m2
10:53 65.1 °F /  18.4 °C 50 °F /  10 °C 30.2in /  1021.3hPa ESE 0.9mph /  1.4km/h 4mph /  6.4km/h 58% 0in /  0.0mm 682 W/m2
10:58 65.7 °F /  18.7 °C 50.5 °F /  10.3 °C 30.2in /  1021.0hPa NNE 0.9mph /  1.4km/h 2mph /  3.2km/h 58% 0in /  0.0mm 707 W/m2
11:03 65.5 °F /  18.6 °C 49.8 °F /  9.9 °C 30.2in /  1021.3hPa North 0.9mph /  1.4km/h 6mph /  9.7km/h 57% 0in /  0.0mm 701 W/m2
11:08 65.7 °F /  18.7 °C 50.5 °F /  10.3 °C 30.2in /  1021.3hPa East 2mph /  3.2km/h 3mph /  4.8km/h 58% 0in /  0.0mm 722 W/m2
11:13 66 °F /  18.9 °C 50.4 °F /  10.2 °C 30.2in /  1021.0hPa WNW 2mph /  3.2km/h 6mph /  9.7km/h 57% 0in /  0.0mm 729 W/m2
11:18 65.8 °F /  18.8 °C 50.2 °F /  10.1 °C 30.2in /  1021.3hPa ENE 2mph /  3.2km/h 6mph /  9.7km/h 57% 0in /  0.0mm 740 W/m2
11:23 65.8 °F /  18.8 °C 49.6 °F /  9.8 °C 30.2in /  1021.3hPa NE 2mph /  3.2km/h 4mph /  6.4km/h 56% 0in /  0.0mm 756 W/m2
11:28 66.2 °F /  19 °C 50.9 °F /  10.5 °C 30.2in /  1021.3hPa ENE 4.9mph /  7.9km/h 6mph /  9.7km/h 58% 0in /  0.0mm 768 W/m2
11:33 66.4 °F /  19.1 °C 50.7 °F /  10.4 °C 30.2in /  1021.0hPa ENE 2.9mph /  4.7km/h 7mph /  11.3km/h 57% 0in /  0.0mm 700 W/m2
11:38 66.6 °F /  19.2 °C 50.9 °F /  10.5 °C 30.2in /  1021.0hPa ESE 2mph /  3.2km/h 4mph /  6.4km/h 57% 0in /  0.0mm 770 W/m2
11:43 66.7 °F /  19.3 °C 50.5 °F /  10.3 °C 30.2in /  1021.0hPa ENE 2mph /  3.2km/h 6mph /  9.7km/h 56% 0in /  0.0mm 789 W/m2
11:48 66.9 °F /  19.4 °C 50.7 °F /  10.4 °C 30.2in /  1021.0hPa East 0.9mph /  1.4km/h 4mph /  6.4km/h 56% 0in /  0.0mm 791 W/m2
11:53 66.9 °F /  19.4 °C 50.7 °F /  10.4 °C 30.2in /  1021.0hPa ENE 2.9mph /  4.7km/h 5mph /  8km/h 56% 0in /  0.0mm 795 W/m2
11:58 66.9 °F /  19.4 °C 50.2 °F /  10.1 °C 30.2in /  1021.0hPa East 0.9mph /  1.4km/h 4mph /  6.4km/h 55% 0in /  0.0mm 805 W/m2
12:03 66.9 °F /  19.4 °C 50.2 °F /  10.1 °C 30.2in /  1021.0hPa ENE 2.9mph /  4.7km/h 5mph /  8km/h 55% 0in /  0.0mm 780 W/m2
12:08 67.3 °F /  19.6 °C 51.1 °F /  10.6 °C 30.2in /  1021.0hPa North 4mph /  6.4km/h 5mph /  8km/h 56% 0in /  0.0mm 823 W/m2
12:13 67.6 °F /  19.8 °C 50.9 °F /  10.5 °C 30.2in /  1021.0hPa NE 2mph /  3.2km/h 4mph /  6.4km/h 55% 0in /  0.0mm 819 W/m2
12:18 68.4 °F /  20.2 °C 50 °F /  10 °C 30.1in /  1020.7hPa WNW 4mph /  6.4km/h 8mph /  12.9km/h 52% 0in /  0.0mm 817 W/m2
12:23 68.4 °F /  20.2 °C 49.5 °F /  9.7 °C 30.1in /  1020.7hPa West 2.9mph /  4.7km/h 5mph /  8km/h 51% 0in /  0.0mm 840 W/m2
12:28 68.5 °F /  20.3 °C 49.6 °F /  9.8 °C 30.1in /  1020.7hPa West 0.9mph /  1.4km/h 8mph /  12.9km/h 51% 0in /  0.0mm 828 W/m2
12:33 68.2 °F /  20.1 °C 49.8 °F /  9.9 °C 30.1in /  1020.7hPa NW 2.9mph /  4.7km/h 4mph /  6.4km/h 52% 0in /  0.0mm 860 W/m2
12:38 68.2 °F /  20.1 °C 49.3 °F /  9.6 °C 30.1in /  1020.7hPa WNW 2mph /  3.2km/h 2mph /  3.2km/h 51% 0in /  0.0mm 842 W/m2
12:43 68.5 °F /  20.3 °C 49.1 °F /  9.5 °C 30.1in /  1020.7hPa WNW 2mph /  3.2km/h 4mph /  6.4km/h 50% 0in /  0.0mm 823 W/m2
12:48 69.1 °F /  20.6 °C 49.1 °F /  9.5 °C 30.1in /  1020.7hPa West 6mph /  9.7km/h 6mph /  9.7km/h 49% 0in /  0.0mm 861 W/m2
12:53 69.3 °F /  20.7 °C 48.7 °F /  9.3 °C 30.1in /  1020.7hPa North 6mph /  9.7km/h 6mph /  9.7km/h 48% 0in /  0.0mm 868 W/m2
12:58 69.4 °F /  20.8 °C 48.4 °F /  9.1 °C 30.1in /  1020.7hPa NNW 0.9mph /  1.4km/h 2mph /  3.2km/h 47% 0in /  0.0mm 865 W/m2
13:03 69.8 °F /  21 °C 50.4 °F /  10.2 °C 30.1in /  1020.7hPa SSW 0.9mph /  1.4km/h 2mph /  3.2km/h 50% 0in /  0.0mm 886 W/m2
13:08 70.2 °F /  21.2 °C 48.9 °F /  9.4 °C 30.1in /  1020.7hPa WSW 4.9mph /  7.9km/h 6mph /  9.7km/h 47% 0in /  0.0mm 904 W/m2
13:13 70.3 °F /  21.3 °C 48.6 °F /  9.2 °C 30.1in /  1020.7hPa NW 2.9mph /  4.7km/h 9mph /  14.5km/h 46% 0in /  0.0mm 835 W/m2
13:18 70.3 °F /  21.3 °C 49.1 °F /  9.5 °C 30.1in /  1020.7hPa NW 2.9mph /  4.7km/h 8mph /  12.9km/h 47% 0in /  0.0mm 856 W/m2
13:23 70.2 °F /  21.2 °C 48.9 °F /  9.4 °C 30.1in /  1020.7hPa NNW 4mph /  6.4km/h 9mph /  14.5km/h 47% 0in /  0.0mm 835 W/m2
13:28 69.6 °F /  20.9 °C 47.8 °F /  8.8 °C 30.1in /  1020.3hPa NNW 0.9mph /  1.4km/h 4mph /  6.4km/h 46% 0in /  0.0mm 835 W/m2
13:33 70.3 °F /  21.3 °C 48 °F /  8.9 °C 30.1in /  1020.3hPa NW 4.9mph /  7.9km/h 7mph /  11.3km/h 45% 0in /  0.0mm 889 W/m2
13:39 70.5 °F /  21.4 °C 48.7 °F /  9.3 °C 30.1in /  1020.3hPa NW 2.9mph /  4.7km/h 3mph /  4.8km/h 46% 0in /  0.0mm 914 W/m2
13:44 70.5 °F /  21.4 °C 48.7 °F /  9.3 °C 30.1in /  1020.3hPa West 2mph /  3.2km/h 4mph /  6.4km/h 46% 0in /  0.0mm 884 W/m2
13:49 70.7 °F /  21.5 °C 48.9 °F /  9.4 °C 30.1in /  1020.3hPa WSW 2.9mph /  4.7km/h 5mph /  8km/h 46% 0in /  0.0mm 881 W/m2
13:54 71.2 °F /  21.8 °C 49.5 °F /  9.7 °C 30.1in /  1020.3hPa South 0.9mph /  1.4km/h 2mph /  3.2km/h 46% 0in /  0.0mm 791 W/m2
13:59 71.6 °F /  22 °C 49.6 °F /  9.8 °C 30.1in /  1020.3hPa WNW 4mph /  6.4km/h 4mph /  6.4km/h 46% 0in /  0.0mm 846 W/m2
14:04 71.4 °F /  21.9 °C 50.7 °F /  10.4 °C 30.1in /  1020.0hPa East 4mph /  6.4km/h 5mph /  8km/h 48% 0in /  0.0mm 809 W/m2
14:09 71.8 °F /  22.1 °C 50.5 °F /  10.3 °C 30.1in /  1020.0hPa ESE 2.9mph /  4.7km/h 4mph /  6.4km/h 47% 0in /  0.0mm 833 W/m2
14:14 72 °F /  22.2 °C 49.5 °F /  9.7 °C 30.1in /  1020.0hPa East 2.9mph /  4.7km/h 6mph /  9.7km/h 45% 0in /  0.0mm 766 W/m2
14:19 71.6 °F /  22 °C 49.6 °F /  9.8 °C 30.1in /  1020.0hPa ENE 2mph /  3.2km/h 6mph /  9.7km/h 46% 0in /  0.0mm 812 W/m2
14:24 71.2 °F /  21.8 °C 49.5 °F /  9.7 °C 30.1in /  1020.0hPa ENE 2mph /  3.2km/h 3mph /  4.8km/h 46% 0in /  0.0mm 809 W/m2
14:29 71.4 °F /  21.9 °C 48.9 °F /  9.4 °C 30.1in /  1020.0hPa NNW 0.9mph /  1.4km/h 7mph /  11.3km/h 45% 0in /  0.0mm 765 W/m2
14:34 72 °F /  22.2 °C 49.5 °F /  9.7 °C 30.1in /  1020.0hPa NW 2mph /  3.2km/h 7mph /  11.3km/h 45% 0in /  0.0mm 858 W/m2
14:39 72.1 °F /  22.3 °C 50.2 °F /  10.1 °C 30.1in /  1020.0hPa NW 0.9mph /  1.4km/h 4mph /  6.4km/h 46% 0in /  0.0mm 911 W/m2
14:44 72.7 °F /  22.6 °C 50.7 °F /  10.4 °C 30.1in /  1020.0hPa West 6mph /  9.7km/h 8mph /  12.9km/h 46% 0in /  0.0mm 826 W/m2
14:49 72.3 °F /  22.4 °C 49.8 °F /  9.9 °C 30.1in /  1019.6hPa NW 2mph /  3.2km/h 6mph /  9.7km/h 45% 0in /  0.0mm 805 W/m2
14:54 72 °F /  22.2 °C 49.5 °F /  9.7 °C 30.1in /  1019.6hPa NW 2mph /  3.2km/h 5mph /  8km/h 45% 0in /  0.0mm 789 W/m2
14:59 72.1 °F /  22.3 °C 50.2 °F /  10.1 °C 30.1in /  1019.6hPa WSW 4mph /  6.4km/h 6mph /  9.7km/h 46% 0in /  0.0mm 802 W/m2
15:04 72.3 °F /  22.4 °C 49.8 °F /  9.9 °C 30.1in /  1019.6hPa Calm   3mph /  4.8km/h 45% 0in /  0.0mm 800 W/m2
15:09 72.9 °F /  22.7 °C 50.9 °F /  10.5 °C 30.1in /  1019.6hPa Calm   3mph /  4.8km/h 46% 0in /  0.0mm 796 W/m2
15:14 73 °F /  22.8 °C 51.1 °F /  10.6 °C 30.1in /  1019.6hPa NW 4mph /  6.4km/h 7mph /  11.3km/h 46% 0in /  0.0mm 756 W/m2
15:19 72.7 °F /  22.6 °C 50.2 °F /  10.1 °C 30.1in /  1019.6hPa WSW 0.9mph /  1.4km/h 2mph /  3.2km/h 45% 0in /  0.0mm 831 W/m2
15:24 72.9 °F /  22.7 °C 50.9 °F /  10.5 °C 30.1in /  1019.6hPa ESE 2mph /  3.2km/h 3mph /  4.8km/h 46% 0in /  0.0mm 809 W/m2
15:29 73.6 °F /  23.1 °C 50.9 °F /  10.5 °C 30.1in /  1019.3hPa West 2.9mph /  4.7km/h 8mph /  12.9km/h 45% 0in /  0.0mm 772 W/m2
15:34 73.6 °F /  23.1 °C 50.4 °F /  10.2 °C 30.1in /  1019.3hPa WNW 4.9mph /  7.9km/h 9mph /  14.5km/h 44% 0in /  0.0mm 677 W/m2
15:39 73.4 °F /  23 °C 50.7 °F /  10.4 °C 30.1in /  1019.3hPa West 2.9mph /  4.7km/h 4mph /  6.4km/h 45% 0in /  0.0mm 689 W/m2
15:44 73.6 °F /  23.1 °C 50.9 °F /  10.5 °C 30.1in /  1019.3hPa ESE 2mph /  3.2km/h 4mph /  6.4km/h 45% 0in /  0.0mm 707 W/m2
15:49 73.8 °F /  23.2 °C 50.5 °F /  10.3 °C 30.1in /  1019.3hPa WSW 4mph /  6.4km/h 4mph /  6.4km/h 44% 0in /  0.0mm 682 W/m2
15:54 73.8 °F /  23.2 °C 50.5 °F /  10.3 °C 30.1in /  1019.3hPa WSW 2mph /  3.2km/h 4mph /  6.4km/h 44% 0in /  0.0mm 761 W/m2
15:59 73.9 °F /  23.3 °C 49.5 °F /  9.7 °C 30.1in /  1019.3hPa WNW 2mph /  3.2km/h 4mph /  6.4km/h 42% 0in /  0.0mm 677 W/m2
16:04 73.9 °F /  23.3 °C 51.3 °F /  10.7 °C 30.1in /  1019.0hPa ESE 2.9mph /  4.7km/h 3mph /  4.8km/h 45% 0in /  0.0mm 656 W/m2
16:09 74.1 °F /  23.4 °C 50.2 °F /  10.1 °C 30.1in /  1019.0hPa WSW 2mph /  3.2km/h 4mph /  6.4km/h 43% 0in /  0.0mm 617 W/m2
16:19 73.8 °F /  23.2 °C 49.8 °F /  9.9 °C 30.1in /  1019.0hPa West 2.9mph /  4.7km/h 4mph /  6.4km/h 43% 0in /  0.0mm 563 W/m2
16:24 73.8 °F /  23.2 °C 49.3 °F /  9.6 °C 30.1in /  1019.0hPa ESE 2mph /  3.2km/h 3mph /  4.8km/h 42% 0in /  0.0mm 696 W/m2
16:29 73.6 °F /  23.1 °C 49.6 °F /  9.8 °C 30.1in /  1019.0hPa West 0.9mph /  1.4km/h 5mph /  8km/h 43% 0in /  0.0mm 615 W/m2
16:34 73.8 °F /  23.2 °C 49.3 °F /  9.6 °C 30.1in /  1019.0hPa ESE 2mph /  3.2km/h 2mph /  3.2km/h 42% 0in /  0.0mm 633 W/m2
16:39 73.9 °F /  23.3 °C 50.7 °F /  10.4 °C 30.1in /  1019.0hPa West 6mph /  9.7km/h 6mph /  9.7km/h 44% 0in /  0.0mm 657 W/m2
16:44 74.5 °F /  23.6 °C 51.1 °F /  10.6 °C 30.1in /  1019.0hPa South 0.9mph /  1.4km/h 3mph /  4.8km/h 44% 0in /  0.0mm 649 W/m2
16:49 74.8 °F /  23.8 °C 50.2 °F /  10.1 °C 30.1in /  1019.0hPa NW 0.9mph /  1.4km/h 3mph /  4.8km/h 42% 0in /  0.0mm 647 W/m2
16:54 75 °F /  23.9 °C 49.6 °F /  9.8 °C 30.1in /  1018.6hPa West 0.9mph /  1.4km/h 3mph /  4.8km/h 41% 0in /  0.0mm 643 W/m2
16:59 75.4 °F /  24.1 °C 49.5 °F /  9.7 °C 30.1in /  1018.6hPa NNW 6mph /  9.7km/h 6mph /  9.7km/h 40% 0in /  0.0mm 645 W/m2
17:04 75 °F /  23.9 °C 49.1 °F /  9.5 °C 30.1in /  1018.6hPa NNW 2mph /  3.2km/h 4mph /  6.4km/h 40% 0in /  0.0mm 606 W/m2
17:09 74.8 °F /  23.8 °C 48.9 °F /  9.4 °C 30.1in /  1018.6hPa North 2mph /  3.2km/h 3mph /  4.8km/h 40% 0in /  0.0mm 622 W/m2
17:14 75 °F /  23.9 °C 50.4 °F /  10.2 °C 30.1in /  1018.3hPa West 2.9mph /  4.7km/h 6mph /  9.7km/h 42% 0in /  0.0mm 568 W/m2
17:19 75.2 °F /  24 °C 49.3 °F /  9.6 °C 30.1in /  1018.6hPa NE 2mph /  3.2km/h 4mph /  6.4km/h 40% 0in /  0.0mm 526 W/m2
17:24 74.8 °F /  23.8 °C 49.6 °F /  9.8 °C 30.1in /  1018.3hPa NE 0.9mph /  1.4km/h 6mph /  9.7km/h 41% 0in /  0.0mm 531 W/m2
17:29 75.4 °F /  24.1 °C 49.5 °F /  9.7 °C 30.1in /  1018.6hPa Calm   3mph /  4.8km/h 40% 0in /  0.0mm 512 W/m2
17:34 75.7 °F /  24.3 °C 49.6 °F /  9.8 °C 30.1in /  1018.6hPa NNW 0.9mph /  1.4km/h 1mph /  1.6km/h 40% 0in /  0.0mm 520 W/m2
17:39 76.3 °F /  24.6 °C 48.7 °F /  9.3 °C 30.1in /  1018.3hPa ENE 2.9mph /  4.7km/h 3mph /  4.8km/h 38% 0in /  0.0mm 455 W/m2
17:44 75.9 °F /  24.4 °C 49.1 °F /  9.5 °C 30.1in /  1018.3hPa West 2.9mph /  4.7km/h 4mph /  6.4km/h 39% 0in /  0.0mm 512 W/m2
17:49 75.7 °F /  24.3 °C 49.1 °F /  9.5 °C 30.1in /  1018.3hPa NE 0.9mph /  1.4km/h 2mph /  3.2km/h 39% 0in /  0.0mm 533 W/m2
17:54 75.9 °F /  24.4 °C 49.1 °F /  9.5 °C 30.1in /  1018.3hPa West 2.9mph /  4.7km/h 4mph /  6.4km/h 39% 0in /  0.0mm 394 W/m2
17:59 75.6 °F /  24.2 °C 48.9 °F /  9.4 °C 30.1in /  1018.3hPa West 2mph /  3.2km/h 3mph /  4.8km/h 39% 0in /  0.0mm 429 W/m2
18:04 75.4 °F /  24.1 °C 49.5 °F /  9.7 °C 30.1in /  1018.3hPa NW 0.9mph /  1.4km/h 4mph /  6.4km/h 40% 0in /  0.0mm 436 W/m2
18:09 75.6 °F /  24.2 °C 49.5 °F /  9.7 °C 30.1in /  1018.3hPa North 2.9mph /  4.7km/h 4mph /  6.4km/h 40% 0in /  0.0mm 452 W/m2
18:14 75.6 °F /  24.2 °C 48.9 °F /  9.4 °C 30.1in /  1018.3hPa West 0.9mph /  1.4km/h 2mph /  3.2km/h 39% 0in /  0.0mm 355 W/m2
18:19 75.6 °F /  24.2 °C 49.5 °F /  9.7 °C 30.1in /  1018.3hPa ENE 0.9mph /  1.4km/h 3mph /  4.8km/h 40% 0in /  0.0mm 283 W/m2
18:24 75.6 °F /  24.2 °C 49.5 °F /  9.7 °C 30.1in /  1018.0hPa NE 0.9mph /  1.4km/h 4mph /  6.4km/h 40% 0in /  0.0mm 295 W/m2
18:29 75.4 °F /  24.1 °C 50.7 °F /  10.4 °C 30.1in /  1018.0hPa ENE 0.9mph /  1.4km/h 2mph /  3.2km/h 42% 0in /  0.0mm 336 W/m2
18:34 75.4 °F /  24.1 °C 50 °F /  10 °C 30.1in /  1018.0hPa SE 0.9mph /  1.4km/h 3mph /  4.8km/h 41% 0in /  0.0mm 281 W/m2
18:39 75.4 °F /  24.1 °C 49.5 °F /  9.7 °C 30.1in /  1018.0hPa NNW 2.9mph /  4.7km/h 3mph /  4.8km/h 40% 0in /  0.0mm 178 W/m2
18:44 75.2 °F /  24 °C 48.6 °F /  9.2 °C 30.1in /  1018.0hPa WNW 0.9mph /  1.4km/h 5mph /  8km/h 39% 0in /  0.0mm 120 W/m2
18:49 75.2 °F /  24 °C 49.3 °F /  9.6 °C 30.1in /  1018.0hPa ESE 0.9mph /  1.4km/h 3mph /  4.8km/h 40% 0in /  0.0mm 125 W/m2
18:54 75.6 °F /  24.2 °C 49.5 °F /  9.7 °C 30.1in /  1018.0hPa SE 2.9mph /  4.7km/h 3mph /  4.8km/h 40% 0in /  0.0mm 116 W/m2
18:59 75.6 °F /  24.2 °C 48.9 °F /  9.4 °C 30.1in /  1018.0hPa East 2mph /  3.2km/h 3mph /  4.8km/h 39% 0in /  0.0mm 104 W/m2
19:04 75.4 °F /  24.1 °C 48.7 °F /  9.3 °C 30.1in /  1018.0hPa East 0.9mph /  1.4km/h 4mph /  6.4km/h 39% 0in /  0.0mm 98 W/m2
19:09 75 °F /  23.9 °C 49.1 °F /  9.5 °C 30.1in /  1018.0hPa NE 2.9mph /  4.7km/h 3mph /  4.8km/h 40% 0in /  0.0mm 86 W/m2
19:14 75 °F /  23.9 °C 49.6 °F /  9.8 °C 30.1in /  1018.0hPa Calm   2mph /  3.2km/h 41% 0in /  0.0mm 74 W/m2
19:19 75 °F /  23.9 °C 49.1 °F /  9.5 °C 30.1in /  1018.0hPa Calm   3mph /  4.8km/h 40% 0in /  0.0mm 76 W/m2
19:24 75.2 °F /  24 °C 49.3 °F /  9.6 °C 30.1in /  1018.0hPa Calm   1mph /  1.6km/h 40% 0in /  0.0mm 69 W/m2
19:29 75.2 °F /  24 °C 50.5 °F /  10.3 °C 30.1in /  1018.0hPa NE 2mph /  3.2km/h 3mph /  4.8km/h 42% 0in /  0.0mm 69 W/m2
19:34 74.8 °F /  23.8 °C 50.2 °F /  10.1 °C 30.1in /  1018.0hPa WNW 2mph /  3.2km/h 4mph /  6.4km/h 42% 0in /  0.0mm 67 W/m2
19:39 74.7 °F /  23.7 °C 50.7 °F /  10.4 °C 30.1in /  1018.0hPa NE 4mph /  6.4km/h 4mph /  6.4km/h 43% 0in /  0.0mm 69 W/m2
19:44 74.5 °F /  23.6 °C 50.5 °F /  10.3 °C 30.1in /  1018.0hPa Calm   1mph /  1.6km/h 43% 0in /  0.0mm 62 W/m2
19:49 74.3 °F /  23.5 °C 50.9 °F /  10.5 °C 30.1in /  1018.0hPa Calm   1mph /  1.6km/h 44% 0in /  0.0mm 53 W/m2
19:54 73.9 °F /  23.3 °C 50.7 °F /  10.4 °C 30.1in /  1018.0hPa East 0.9mph /  1.4km/h 2mph /  3.2km/h 44% 0in /  0.0mm 47 W/m2
19:59 73.6 °F /  23.1 °C 50.9 °F /  10.5 °C 30.1in /  1018.0hPa West 2mph /  3.2km/h 3mph /  4.8km/h 45% 0in /  0.0mm 46 W/m2
20:04 73 °F /  22.8 °C 51.1 °F /  10.6 °C 30.1in /  1018.0hPa WSW 0.9mph /  1.4km/h 1mph /  1.6km/h 46% 0in /  0.0mm 47 W/m2
20:09 72.7 °F /  22.6 °C 52.9 °F /  11.6 °C 30.1in /  1018.0hPa WSW 0.9mph /  1.4km/h 3mph /  4.8km/h 50% 0in /  0.0mm 40 W/m2
20:14 72.3 °F /  22.4 °C 53.2 °F /  11.8 °C 30.1in /  1018.0hPa Calm   2mph /  3.2km/h 51% 0in /  0.0mm 37 W/m2
20:19 71.8 °F /  22.1 °C 53.2 °F /  11.8 °C 30.1in /  1018.0hPa Calm   1mph /  1.6km/h 52% 0in /  0.0mm 35 W/m2
20:24 71.2 °F /  21.8 °C 53.2 °F /  11.8 °C 30.1in /  1018.0hPa WSW 2mph /  3.2km/h 2mph /  3.2km/h 53% 0in /  0.0mm 35 W/m2
20:29 70.7 °F /  21.5 °C 53.2 °F /  11.8 °C 30.1in /  1018.0hPa WSW 0.9mph /  1.4km/h 2mph /  3.2km/h 54% 0in /  0.0mm 35 W/m2
20:34 70.2 °F /  21.2 °C 52.7 °F /  11.5 °C 30.1in /  1018.0hPa WSW 0.9mph /  1.4km/h 1mph /  1.6km/h 54% 0in /  0.0mm 35 W/m2
20:39 69.8 °F /  21 °C 52.3 °F /  11.3 °C 30.1in /  1018.0hPa Calm     54% 0in /  0.0mm 32 W/m2
20:44 69.4 °F /  20.8 °C 52.2 °F /  11.2 °C 30.1in /  1018.0hPa Calm     54% 0in /  0.0mm 28 W/m2
20:50 69.1 °F /  20.6 °C 51.8 °F /  11 °C 30.1in /  1018.0hPa Calm     54% 0in /  0.0mm 25 W/m2
20:55 68.5 °F /  20.3 °C 51.3 °F /  10.7 °C 30.1in /  1018.0hPa Calm   1mph /  1.6km/h 54% 0in /  0.0mm 19 W/m2
21:00 68.2 °F /  20.1 °C 50.9 °F /  10.5 °C 30.1in /  1018.0hPa Calm     54% 0in /  0.0mm 14 W/m2
21:05 67.6 °F /  19.8 °C 50.4 °F /  10.2 °C 30.1in /  1018.0hPa WSW 0.9mph /  1.4km/h 2mph /  3.2km/h 54% 0in /  0.0mm 11 W/m2
21:10 67.1 °F /  19.5 °C 50.9 °F /  10.5 °C 30.1in /  1018.0hPa WSW 0.9mph /  1.4km/h 2mph /  3.2km/h 56% 0in /  0.0mm 7 W/m2
21:15 66.7 °F /  19.3 °C 50.5 °F /  10.3 °C 30.1in /  1018.0hPa Calm     56% 0in /  0.0mm 5 W/m2
21:20 66.2 °F /  19 °C 50 °F /  10 °C 30.1in /  1018.0hPa Calm   2mph /  3.2km/h 56% 0in /  0.0mm 0 W/m2
21:25 65.7 °F /  18.7 °C 50 °F /  10 °C 30.1in /  1018.0hPa Calm     57% 0in /  0.0mm 0 W/m2
21:30 65.1 °F /  18.4 °C 50 °F /  10 °C 30.1in /  1018.0hPa Calm     58% 0in /  0.0mm 0 W/m2
21:35 64.8 °F /  18.2 °C 50.2 °F /  10.1 °C 30.1in /  1018.0hPa Calm     59% 0in /  0.0mm 0 W/m2
21:40 64.2 °F /  17.9 °C 50 °F /  10 °C 30.1in /  1018.0hPa Calm     60% 0in /  0.0mm 0 W/m2
21:45 63.9 °F /  17.7 °C 50.2 °F /  10.1 °C 30.1in /  1018.0hPa Calm     61% 0in /  0.0mm 0 W/m2
21:50 63.3 °F /  17.4 °C 49.6 °F /  9.8 °C 30.1in /  1018.3hPa Calm     61% 0in /  0.0mm 0 W/m2
21:55 63 °F /  17.2 °C 49.3 °F /  9.6 °C 30.1in /  1018.3hPa Calm     61% 0in /  0.0mm 0 W/m2
22:00 62.6 °F /  17 °C 49.5 °F /  9.7 °C 30.1in /  1018.3hPa Calm     62% 0in /  0.0mm 0 W/m2
22:05 62.2 °F /  16.8 °C 49.5 °F /  9.7 °C 30.1in /  1018.3hPa Calm     63% 0in /  0.0mm 0 W/m2
22:10 62.1 °F /  16.7 °C 49.3 °F /  9.6 °C 30.1in /  1018.3hPa Calm     63% 0in /  0.0mm 0 W/m2
22:15 61.9 °F /  16.6 °C 49.6 °F /  9.8 °C 30.1in /  1018.3hPa Calm     64% 0in /  0.0mm 0 W/m2
22:20 61.5 °F /  16.4 °C 49.3 °F /  9.6 °C 30.1in /  1018.3hPa Calm     64% 0in /  0.0mm 0 W/m2
22:25 61.3 °F /  16.3 °C 49.5 °F /  9.7 °C 30.1in /  1018.3hPa Calm     65% 0in /  0.0mm 0 W/m2
22:30 61.2 °F /  16.2 °C 49.3 °F /  9.6 °C 30.1in /  1018.3hPa Calm     65% 0in /  0.0mm 0 W/m2
22:35 61 °F /  16.1 °C 49.1 °F /  9.5 °C 30.1in /  1018.3hPa Calm     65% 0in /  0.0mm 0 W/m2
22:40 60.6 °F /  15.9 °C 49.3 °F /  9.6 °C 30.1in /  1018.3hPa Calm     66% 0in /  0.0mm 0 W/m2
22:50 60.3 °F /  15.7 °C 49.3 °F /  9.6 °C 30.1in /  1018.3hPa Calm     67% 0in /  0.0mm 0 W/m2
22:55 60.1 °F /  15.6 °C 48.7 °F /  9.3 °C 30.1in /  1018.3hPa Calm     66% 0in /  0.0mm 0 W/m2
23:00 60.1 °F /  15.6 °C 49.1 °F /  9.5 °C 30.1in /  1018.3hPa Calm     67% 0in /  0.0mm 0 W/m2
23:05 60.1 °F /  15.6 °C 49.1 °F /  9.5 °C 30.1in /  1018.3hPa Calm     67% 0in /  0.0mm 0 W/m2
23:10 59.7 °F /  15.4 °C 48.7 °F /  9.3 °C 30.1in /  1018.3hPa Calm     67% 0in /  0.0mm 0 W/m2
23:15 59.5 °F /  15.3 °C 48.6 °F /  9.2 °C 30.1in /  1018.3hPa Calm     67% 0in /  0.0mm 0 W/m2
23:20 59.4 °F /  15.2 °C 48.7 °F /  9.3 °C 30.1in /  1018.3hPa Calm     68% 0in /  0.0mm 0 W/m2
23:25 59.2 °F /  15.1 °C 48.6 °F /  9.2 °C 30.1in /  1018.3hPa Calm     68% 0in /  0.0mm 0 W/m2
23:30 59 °F /  15 °C 48.4 °F /  9.1 °C 30.1in /  1018.3hPa Calm     68% 0in /  0.0mm 0 W/m2
23:35 58.6 °F /  14.8 °C 48.6 °F /  9.2 °C 30.1in /  1018.3hPa Calm     69% 0in /  0.0mm 0 W/m2
23:40 58.6 °F /  14.8 °C 48.9 °F /  9.4 °C 30.1in /  1018.3hPa Calm     70% 0in /  0.0mm 0 W/m2
23:45 58.5 °F /  14.7 °C 49.5 °F /  9.7 °C 30.1in /  1018.3hPa Calm     72% 0in /  0.0mm 0 W/m2
23:50 58.3 °F /  14.6 °C 49.3 °F /  9.6 °C 30.1in /  1018.3hPa Calm     72% 0in /  0.0mm 0 W/m2
23:55 57.9 °F /  14.4 °C 48.9 °F /  9.4 °C 30.1in /  1018.0hPa Calm     72% 0in /  0.0mm 0 W/m2
Juneau County Weather
Compliments of Weather Underground - 4 mb